IGO327F VIDP-VILK
Flight info
| Callsign | IGO327F |
|---|---|
| Flight time | 0h 41m |
| Altitude | 34000 |
| Route | KADAS/N0450F370 |
| Aircraft | B38M/M-SDE1FGHILORVWXY/HB1 |
Departure
| Time | 2026-05-04 19:17 |
|---|---|
| Airport | Indira Gandhi International Airport (VIDP) |
Arrival
| Time | 2026-05-04 19:59 |
|---|---|
| Airport | Chaudhary Charan Singh International Airport (VILK) |
| Time | Latitude | Longitude | Altitude | Speed | Heading |
|---|---|---|---|---|---|
| 2026-05-04 18:59 | 28.56717 | 77.10951 | 750 ft | 0 kts | 284° |
| 2026-05-04 19:12 | 28.56708 | 77.10976 | 749 ft | 6 kts | 320° |
| 2026-05-04 19:12 | 28.56723 | 77.11001 | 748 ft | 11 kts | 27° |
| 2026-05-04 19:12 | 28.56822 | 77.11040 | 751 ft | 16 kts | 8° |
| 2026-05-04 19:13 | 28.56855 | 77.10982 | 753 ft | 11 kts | 271° |
| 2026-05-04 19:13 | 28.56857 | 77.10887 | 753 ft | 14 kts | 271° |
| 2026-05-04 19:13 | 28.56861 | 77.10741 | 753 ft | 24 kts | 271° |
| 2026-05-04 19:13 | 28.56865 | 77.10516 | 752 ft | 25 kts | 271° |
| 2026-05-04 19:14 | 28.56870 | 77.10302 | 750 ft | 28 kts | 271° |
| 2026-05-04 19:14 | 28.56875 | 77.10081 | 752 ft | 28 kts | 271° |
| 2026-05-04 19:14 | 28.56880 | 77.09853 | 753 ft | 30 kts | 271° |
| 2026-05-04 19:14 | 28.56885 | 77.09647 | 753 ft | 26 kts | 271° |
| 2026-05-04 19:15 | 28.56889 | 77.09434 | 753 ft | 28 kts | 271° |
| 2026-05-04 19:15 | 28.56894 | 77.09212 | 753 ft | 24 kts | 274° |
| 2026-05-04 19:15 | 28.56898 | 77.09011 | 752 ft | 27 kts | 271° |
| 2026-05-04 19:15 | 28.56922 | 77.08867 | 751 ft | 12 kts | 330° |
| 2026-05-04 19:16 | 28.57012 | 77.08867 | 749 ft | 14 kts | 6° |
| 2026-05-04 19:16 | 28.57053 | 77.08934 | 752 ft | 11 kts | 93° |
| 2026-05-04 19:16 | 28.57049 | 77.09085 | 753 ft | 49 kts | 92° |
| 2026-05-04 19:16 | 28.57034 | 77.09839 | 753 ft | 139 kts | 91° |
| 2026-05-04 19:17 | 28.57003 | 77.11225 | 831 ft | 206 kts | 90° |
| 2026-05-04 19:17 | 28.56967 | 77.12898 | 1877 ft | 207 kts | 94° |
| 2026-05-04 19:17 | 28.56920 | 77.14531 | 3164 ft | 216 kts | 94° |
| 2026-05-04 19:17 | 28.56869 | 77.16329 | 3808 ft | 241 kts | 93° |
| 2026-05-04 19:18 | 28.56821 | 77.18268 | 4882 ft | 247 kts | 92° |
| 2026-05-04 19:18 | 28.56773 | 77.20285 | 5788 ft | 264 kts | 92° |
| 2026-05-04 19:18 | 28.56724 | 77.22426 | 6718 ft | 276 kts | 92° |
| 2026-05-04 19:18 | 28.56675 | 77.24635 | 7719 ft | 283 kts | 90° |
| 2026-05-04 19:19 | 28.56625 | 77.26902 | 8730 ft | 290 kts | 90° |
| 2026-05-04 19:19 | 28.56542 | 77.29235 | 9456 ft | 302 kts | 95° |
| 2026-05-04 19:19 | 28.55896 | 77.31436 | 9447 ft | 299 kts | 121° |
| 2026-05-04 19:19 | 28.54489 | 77.33164 | 9606 ft | 301 kts | 144° |
| 2026-05-04 19:20 | 28.52676 | 77.34361 | 9795 ft | 303 kts | 150° |
| 2026-05-04 19:20 | 28.50832 | 77.35525 | 9878 ft | 304 kts | 150° |
| 2026-05-04 19:20 | 28.48993 | 77.36704 | 9877 ft | 303 kts | 150° |
| 2026-05-04 19:20 | 28.47158 | 77.37891 | 9864 ft | 303 kts | 149° |
| 2026-05-04 19:21 | 28.45322 | 77.39087 | 9882 ft | 310 kts | 149° |
| 2026-05-04 19:21 | 28.44084 | 77.39904 | 10447 ft | 313 kts | 149° |
| 2026-05-04 19:21 | 28.41506 | 77.41595 | 11366 ft | 333 kts | 149° |
| 2026-05-04 19:21 | 28.39464 | 77.42935 | 12125 ft | 343 kts | 150° |
| 2026-05-04 19:22 | 28.37387 | 77.44294 | 13090 ft | 347 kts | 150° |
| 2026-05-04 19:22 | 28.35285 | 77.45667 | 14004 ft | 349 kts | 150° |
| 2026-05-04 19:22 | 28.33164 | 77.47050 | 14809 ft | 355 kts | 151° |
| 2026-05-04 19:22 | 28.31735 | 77.47982 | 15279 ft | 359 kts | 151° |
| 2026-05-04 19:23 | 28.29599 | 77.49498 | 16051 ft | 366 kts | 141° |
| 2026-05-04 19:23 | 28.27856 | 77.51678 | 16831 ft | 373 kts | 128° |
| 2026-05-04 19:23 | 28.26258 | 77.53986 | 17445 ft | 381 kts | 129° |
| 2026-05-04 19:23 | 28.24618 | 77.56364 | 18198 ft | 385 kts | 129° |
| 2026-05-04 19:24 | 28.22964 | 77.58787 | 18811 ft | 391 kts | 129° |
| 2026-05-04 19:24 | 28.21299 | 77.61246 | 19432 ft | 396 kts | 129° |
| 2026-05-04 19:24 | 28.19613 | 77.63744 | 20056 ft | 400 kts | 129° |
| 2026-05-04 19:24 | 28.17915 | 77.66264 | 20691 ft | 404 kts | 129° |
| 2026-05-04 19:25 | 28.16200 | 77.68807 | 21289 ft | 408 kts | 129° |
| 2026-05-04 19:25 | 28.14466 | 77.71376 | 21902 ft | 412 kts | 129° |
| 2026-05-04 19:25 | 28.12715 | 77.73969 | 22508 ft | 416 kts | 129° |
| 2026-05-04 19:25 | 28.10946 | 77.76587 | 23078 ft | 420 kts | 130° |
| 2026-05-04 19:26 | 28.09162 | 77.79227 | 23617 ft | 424 kts | 130° |
| 2026-05-04 19:26 | 28.07361 | 77.81889 | 24099 ft | 427 kts | 130° |
| 2026-05-04 19:26 | 28.05547 | 77.84569 | 24597 ft | 430 kts | 130° |
| 2026-05-04 19:26 | 28.03720 | 77.87267 | 25082 ft | 433 kts | 131° |
| 2026-05-04 19:27 | 28.01878 | 77.89984 | 25565 ft | 437 kts | 131° |
| 2026-05-04 19:27 | 28.00022 | 77.92721 | 26035 ft | 440 kts | 131° |
| 2026-05-04 19:27 | 27.98157 | 77.95470 | 26498 ft | 442 kts | 131° |
| 2026-05-04 19:27 | 27.96275 | 77.98242 | 26982 ft | 445 kts | 132° |
| 2026-05-04 19:28 | 27.94385 | 78.01023 | 27440 ft | 448 kts | 132° |
| 2026-05-04 19:28 | 27.92480 | 78.03824 | 27887 ft | 450 kts | 132° |
| 2026-05-04 19:28 | 27.90564 | 78.06641 | 28335 ft | 453 kts | 132° |
| 2026-05-04 19:28 | 27.88636 | 78.09473 | 28725 ft | 457 kts | 132° |
| 2026-05-04 19:29 | 27.86679 | 78.12343 | 28823 ft | 465 kts | 132° |
| 2026-05-04 19:29 | 27.82818 | 78.18226 | 28792 ft | 470 kts | 123° |
| 2026-05-04 19:30 | 27.79969 | 78.24929 | 28818 ft | 473 kts | 120° |
| 2026-05-04 19:30 | 27.77066 | 78.31607 | 28807 ft | 474 kts | 120° |
| 2026-05-04 19:31 | 27.74194 | 78.38308 | 28813 ft | 474 kts | 120° |
| 2026-05-04 19:31 | 27.71324 | 78.45005 | 28810 ft | 474 kts | 120° |
| 2026-05-04 19:32 | 27.68452 | 78.51700 | 28815 ft | 474 kts | 120° |
| 2026-05-04 19:32 | 27.65576 | 78.58390 | 28815 ft | 474 kts | 120° |
| 2026-05-04 19:33 | 27.62717 | 78.65031 | 28815 ft | 474 kts | 120° |
| 2026-05-04 19:33 | 27.59846 | 78.71694 | 28815 ft | 469 kts | 120° |
| 2026-05-04 19:34 | 27.57010 | 78.78258 | 28722 ft | 458 kts | 120° |
| 2026-05-04 19:34 | 27.55630 | 78.81451 | 28438 ft | 449 kts | 120° |
| 2026-05-04 19:34 | 27.54270 | 78.84591 | 28163 ft | 444 kts | 120° |
| 2026-05-04 19:34 | 27.52921 | 78.87704 | 27886 ft | 441 kts | 120° |
| 2026-05-04 19:35 | 27.51580 | 78.90797 | 27620 ft | 438 kts | 120° |
| 2026-05-04 19:35 | 27.50244 | 78.93876 | 27349 ft | 436 kts | 120° |
| 2026-05-04 19:35 | 27.48913 | 78.96942 | 27082 ft | 434 kts | 120° |
| 2026-05-04 19:35 | 27.47589 | 78.99991 | 26820 ft | 433 kts | 120° |
| 2026-05-04 19:36 | 27.46270 | 79.03027 | 26564 ft | 431 kts | 120° |
| 2026-05-04 19:36 | 27.44956 | 79.06045 | 26309 ft | 429 kts | 120° |
| 2026-05-04 19:36 | 27.43648 | 79.09052 | 26055 ft | 426 kts | 120° |
| 2026-05-04 19:36 | 27.42346 | 79.12040 | 25797 ft | 424 kts | 120° |
| 2026-05-04 19:37 | 27.41047 | 79.15016 | 25546 ft | 423 kts | 120° |
| 2026-05-04 19:37 | 27.39758 | 79.17971 | 25183 ft | 419 kts | 120° |
| 2026-05-04 19:37 | 27.38469 | 79.20922 | 24594 ft | 421 kts | 120° |
| 2026-05-04 19:37 | 27.37175 | 79.23885 | 24071 ft | 422 kts | 120° |
| 2026-05-04 19:38 | 27.35882 | 79.26840 | 23588 ft | 421 kts | 120° |
| 2026-05-04 19:38 | 27.34592 | 79.29789 | 23080 ft | 420 kts | 119° |
| 2026-05-04 19:38 | 27.33307 | 79.32724 | 22586 ft | 417 kts | 119° |
| 2026-05-04 19:38 | 27.32029 | 79.35641 | 22125 ft | 414 kts | 119° |
| 2026-05-04 19:39 | 27.30761 | 79.38532 | 21679 ft | 411 kts | 119° |
| 2026-05-04 19:39 | 27.29502 | 79.41401 | 21241 ft | 408 kts | 119° |
| 2026-05-04 19:39 | 27.28251 | 79.44251 | 20806 ft | 405 kts | 118° |
| 2026-05-04 19:39 | 27.27010 | 79.47076 | 20378 ft | 402 kts | 118° |
| 2026-05-04 19:40 | 27.25774 | 79.49887 | 19959 ft | 400 kts | 118° |
| 2026-05-04 19:40 | 27.24547 | 79.52676 | 19540 ft | 397 kts | 118° |
| 2026-05-04 19:40 | 27.23326 | 79.55450 | 19118 ft | 395 kts | 117° |
| 2026-05-04 19:40 | 27.22110 | 79.58208 | 18705 ft | 393 kts | 117° |
| 2026-05-04 19:41 | 27.20900 | 79.60955 | 18290 ft | 391 kts | 117° |
| 2026-05-04 19:41 | 27.19695 | 79.63685 | 17830 ft | 389 kts | 117° |
| 2026-05-04 19:41 | 27.18495 | 79.66402 | 17382 ft | 387 kts | 117° |
| 2026-05-04 19:41 | 27.17307 | 79.69092 | 16966 ft | 383 kts | 117° |
| 2026-05-04 19:42 | 27.16126 | 79.71764 | 16558 ft | 380 kts | 117° |
| 2026-05-04 19:42 | 27.14955 | 79.74412 | 16155 ft | 377 kts | 117° |
| 2026-05-04 19:42 | 27.13793 | 79.77038 | 15759 ft | 374 kts | 117° |
| 2026-05-04 19:42 | 27.12638 | 79.79646 | 15349 ft | 372 kts | 117° |
| 2026-05-04 19:43 | 27.11506 | 79.82200 | 14956 ft | 369 kts | 117° |
| 2026-05-04 19:43 | 27.10364 | 79.84776 | 14547 ft | 367 kts | 117° |
| 2026-05-04 19:43 | 27.09213 | 79.87369 | 14159 ft | 365 kts | 117° |
| 2026-05-04 19:43 | 27.08099 | 79.89878 | 13781 ft | 363 kts | 117° |
| 2026-05-04 19:44 | 27.06975 | 79.92410 | 13344 ft | 362 kts | 117° |
| 2026-05-04 19:44 | 27.05856 | 79.94928 | 12929 ft | 359 kts | 117° |
| 2026-05-04 19:44 | 27.04754 | 79.97405 | 12790 ft | 349 kts | 117° |
| 2026-05-04 19:44 | 27.03677 | 79.99825 | 12841 ft | 347 kts | 117° |
| 2026-05-04 19:45 | 27.02601 | 80.02242 | 12833 ft | 346 kts | 117° |
| 2026-05-04 19:45 | 27.01525 | 80.04657 | 12827 ft | 346 kts | 117° |
| 2026-05-04 19:45 | 27.00449 | 80.07070 | 12816 ft | 345 kts | 117° |
| 2026-05-04 19:45 | 26.99391 | 80.09445 | 12322 ft | 338 kts | 117° |
| 2026-05-04 19:46 | 26.98347 | 80.11784 | 11766 ft | 332 kts | 117° |
| 2026-05-04 19:46 | 26.97328 | 80.14065 | 11371 ft | 322 kts | 117° |
| 2026-05-04 19:46 | 26.96340 | 80.16277 | 10983 ft | 312 kts | 117° |
| 2026-05-04 19:46 | 26.95382 | 80.18422 | 10612 ft | 304 kts | 117° |
| 2026-05-04 19:47 | 26.94442 | 80.20523 | 10118 ft | 300 kts | 117° |
| 2026-05-04 19:47 | 26.93506 | 80.22614 | 9562 ft | 300 kts | 117° |
| 2026-05-04 19:47 | 26.92575 | 80.24695 | 9026 ft | 297 kts | 117° |
| 2026-05-04 19:47 | 26.91659 | 80.26739 | 8622 ft | 289 kts | 117° |
| 2026-05-04 19:48 | 26.90772 | 80.28718 | 8307 ft | 279 kts | 117° |
| 2026-05-04 19:48 | 26.89917 | 80.30625 | 8020 ft | 269 kts | 117° |
| 2026-05-04 19:48 | 26.89085 | 80.32484 | 7736 ft | 268 kts | 117° |
| 2026-05-04 19:48 | 26.88232 | 80.34385 | 7452 ft | 277 kts | 117° |
| 2026-05-04 19:49 | 26.87362 | 80.36324 | 7167 ft | 279 kts | 117° |
| 2026-05-04 19:49 | 26.86493 | 80.38261 | 6863 ft | 277 kts | 116° |
| 2026-05-04 19:49 | 26.85631 | 80.40175 | 6563 ft | 274 kts | 116° |
| 2026-05-04 19:49 | 26.84777 | 80.42076 | 6268 ft | 272 kts | 116° |
| 2026-05-04 19:50 | 26.83929 | 80.43963 | 5959 ft | 270 kts | 116° |
| 2026-05-04 19:50 | 26.83087 | 80.45836 | 5658 ft | 268 kts | 116° |
| 2026-05-04 19:50 | 26.82251 | 80.47693 | 5363 ft | 266 kts | 116° |
| 2026-05-04 19:50 | 26.81421 | 80.49537 | 5096 ft | 264 kts | 116° |
| 2026-05-04 19:51 | 26.80597 | 80.51368 | 5032 ft | 263 kts | 116° |
| 2026-05-04 19:51 | 26.79773 | 80.53196 | 5033 ft | 264 kts | 116° |
| 2026-05-04 19:51 | 26.78973 | 80.54971 | 5031 ft | 245 kts | 116° |
| 2026-05-04 19:51 | 26.78241 | 80.56596 | 5024 ft | 226 kts | 116° |
| 2026-05-04 19:52 | 26.77550 | 80.58129 | 5034 ft | 223 kts | 116° |
| 2026-05-04 19:52 | 26.76852 | 80.59676 | 5038 ft | 223 kts | 116° |
| 2026-05-04 19:52 | 26.76154 | 80.61225 | 5033 ft | 223 kts | 115° |
| 2026-05-04 19:52 | 26.75775 | 80.62850 | 5023 ft | 209 kts | 90° |
| 2026-05-04 19:53 | 26.75774 | 80.64396 | 4888 ft | 189 kts | 90° |
| 2026-05-04 19:53 | 26.75774 | 80.65791 | 4696 ft | 176 kts | 90° |
| 2026-05-04 19:53 | 26.75779 | 80.67169 | 4122 ft | 176 kts | 91° |
| 2026-05-04 19:53 | 26.75738 | 80.68529 | 3458 ft | 174 kts | 94° |
| 2026-05-04 19:54 | 26.75748 | 80.69874 | 2795 ft | 172 kts | 89° |
| 2026-05-04 19:54 | 26.75804 | 80.71183 | 2248 ft | 162 kts | 91° |
| 2026-05-04 19:54 | 26.75827 | 80.72291 | 2333 ft | 131 kts | 92° |
| 2026-05-04 19:54 | 26.75839 | 80.73300 | 2378 ft | 131 kts | 92° |
| 2026-05-04 19:55 | 26.75855 | 80.74317 | 2441 ft | 129 kts | 94° |
| 2026-05-04 19:55 | 26.75870 | 80.75316 | 2474 ft | 128 kts | 93° |
| 2026-05-04 19:55 | 26.75883 | 80.76317 | 2425 ft | 129 kts | 93° |
| 2026-05-04 19:55 | 26.75898 | 80.77313 | 2266 ft | 127 kts | 93° |
| 2026-05-04 19:56 | 26.75912 | 80.78305 | 2067 ft | 127 kts | 92° |
| 2026-05-04 19:56 | 26.75926 | 80.79291 | 1903 ft | 126 kts | 92° |
| 2026-05-04 19:56 | 26.75940 | 80.80269 | 1710 ft | 125 kts | 91° |
| 2026-05-04 19:56 | 26.75953 | 80.81236 | 1555 ft | 123 kts | 91° |
| 2026-05-04 19:57 | 26.75966 | 80.82188 | 1388 ft | 121 kts | 91° |
| 2026-05-04 19:57 | 26.75979 | 80.83135 | 1203 ft | 124 kts | 90° |
| 2026-05-04 19:57 | 26.75993 | 80.84103 | 1039 ft | 125 kts | 89° |
| 2026-05-04 19:57 | 26.76008 | 80.85092 | 868 ft | 129 kts | 91° |
| 2026-05-04 19:58 | 26.76015 | 80.86099 | 679 ft | 129 kts | 89° |
| 2026-05-04 19:58 | 26.76026 | 80.87106 | 524 ft | 128 kts | 89° |
| 2026-05-04 19:58 | 26.76042 | 80.88132 | 420 ft | 128 kts | 88° |
| 2026-05-04 19:58 | 26.76057 | 80.88968 | 422 ft | 85 kts | 89° |
| 2026-05-04 19:59 | 26.76063 | 80.89453 | 422 ft | 39 kts | 89° |
| 2026-05-04 19:59 | 26.76103 | 80.89653 | 413 ft | 25 kts | 60° |
| 2026-05-04 19:59 | 26.76094 | 80.89717 | 410 ft | 8 kts | 154° |
| 2026-05-04 19:59 | 26.76062 | 80.89675 | 416 ft | 12 kts | 281° |
| 2026-05-04 20:00 | 26.76064 | 80.89536 | 420 ft | 24 kts | 269° |
| 2026-05-04 20:00 | 26.76061 | 80.89326 | 423 ft | 28 kts | 269° |
| 2026-05-04 20:00 | 26.76059 | 80.89167 | 420 ft | 21 kts | 269° |
| 2026-05-04 20:00 | 26.76056 | 80.88993 | 421 ft | 23 kts | 269° |
| 2026-05-04 20:01 | 26.76053 | 80.88810 | 422 ft | 25 kts | 269° |
| 2026-05-04 20:01 | 26.76051 | 80.88599 | 419 ft | 29 kts | 269° |
| 2026-05-04 20:01 | 26.76056 | 80.88435 | 418 ft | 9 kts | 297° |
| 2026-05-04 20:01 | 26.76066 | 80.88426 | 422 ft | 2 kts | 333° |
| 2026-05-04 20:02 | 26.76084 | 80.88423 | 423 ft | 4 kts | 357° |
| 2026-05-04 20:02 | 26.76124 | 80.88423 | 420 ft | 8 kts | 358° |
| 2026-05-04 20:02 | 26.76193 | 80.88421 | 417 ft | 13 kts | 359° |
| 2026-05-04 20:02 | 26.76277 | 80.88397 | 422 ft | 10 kts | 309° |
| 2026-05-04 20:03 | 26.76286 | 80.88308 | 423 ft | 14 kts | 269° |
| 2026-05-04 20:03 | 26.76284 | 80.88192 | 420 ft | 11 kts | 269° |
| 2026-05-04 20:03 | 26.76311 | 80.88159 | 421 ft | 6 kts | 353° |
| 2026-05-04 20:03 | 26.76337 | 80.88159 | 422 ft | 1 kts | 1° |
| 2026-05-04 20:04 | 26.76346 | 80.88159 | 423 ft | 0 kts | 0° |
| 2026-05-04 20:04 | 26.76350 | 80.88159 | 424 ft | 0 kts | 0° |